Time;durP1;ratioP1;P1;durP2;ratioP2;P2;SDS_P1;SDS_P2;PMS_P1;PMS_P2;Temp;Humidity;BMP_temperature;BMP_pressure;BME280_temperature;BME280_humidity;BME280_pressure;Samples;Min_cycle;Max_cycle;Signal;HPM_P1;HPM_P2
2023/10/26 00:01:32;;;;;;;15.60;12.98;;;10.40;99.90;;;;;;5036729;28;20037;-66
2023/10/26 00:03:59;;;;;;;18.10;13.02;;;10.50;99.90;;;;;;5025989;28;20077;-66
2023/10/26 00:06:25;;;;;;;17.02;12.52;;;10.30;99.90;;;;;;5028227;28;20658;-66
2023/10/26 00:08:52;;;;;;;23.40;12.68;;;10.40;99.90;;;;;;5007633;28;20064;-66
2023/10/26 00:11:17;;;;;;;20.60;13.38;;;10.40;99.90;;;;;;5009273;28;20407;-66
2023/10/26 00:13:43;;;;;;;19.02;13.57;;;10.40;99.90;;;;;;5025923;28;20041;-66
2023/10/26 00:16:09;;;;;;;21.27;14.05;;;10.40;99.90;;;;;;5026713;28;20045;-66
2023/10/26 00:18:35;;;;;;;18.48;13.63;;;10.40;99.90;;;;;;5029708;28;20955;-66
2023/10/26 00:21:00;;;;;;;22.65;13.40;;;10.30;99.90;;;;;;5015133;28;20404;-66
2023/10/26 00:23:27;;;;;;;21.73;13.55;;;10.30;99.90;;;;;;5027047;28;20045;-66
2023/10/26 00:25:53;;;;;;;25.75;12.30;;;10.30;99.90;;;;;;5026105;28;20038;-66
2023/10/26 00:28:20;;;;;;;19.40;12.93;;;10.40;99.90;;;;;;5009097;28;20045;-66
2023/10/26 00:30:46;;;;;;;23.33;13.50;;;10.30;99.90;;;;;;5025758;28;20411;-66
2023/10/26 00:33:12;;;;;;;15.88;13.00;;;10.40;99.90;;;;;;5027476;28;20426;-66
2023/10/26 00:35:38;;;;;;;16.02;12.40;;;10.30;99.90;;;;;;5025657;28;20560;-66
2023/10/26 00:38:04;;;;;;;22.52;13.23;;;10.40;99.90;;;;;;5026584;28;20121;-66
2023/10/26 00:40:29;;;;;;;19.30;13.00;;;10.40;99.90;;;;;;5009002;28;20172;-66
2023/10/26 00:43:04;;;;;;;16.83;12.13;;;10.30;99.90;;;;;;5008265;28;20049;-66
2023/10/26 00:45:34;;;;;;;18.02;12.10;;;10.30;99.90;;;;;;5028130;28;20155;-66
2023/10/26 00:48:00;;;;;;;16.92;12.63;;;10.30;99.90;;;;;;5024900;28;20518;-66
2023/10/26 00:50:27;;;;;;;22.30;12.20;;;10.30;99.90;;;;;;5026958;28;20041;-66
2023/10/26 00:52:54;;;;;;;21.80;12.90;;;10.30;99.90;;;;;;5025719;28;20049;-66
2023/10/26 00:55:21;;;;;;;15.55;12.48;;;10.30;99.90;;;;;;5010784;28;20049;-66
2023/10/26 00:57:47;;;;;;;22.38;13.25;;;10.30;99.90;;;;;;5038696;28;20538;-66
2023/10/26 01:00:13;;;;;;;21.83;14.30;;;10.30;99.90;;;;;;5022847;28;20045;-66
2023/10/26 01:02:39;;;;;;;20.85;13.73;;;10.30;99.90;;;;;;5017656;28;20037;-66
2023/10/26 01:05:05;;;;;;;20.70;12.70;;;10.30;99.90;;;;;;5022121;28;20110;-66
2023/10/26 01:07:31;;;;;;;18.80;12.70;;;10.40;99.90;;;;;;5039448;28;20083;-66
2023/10/26 01:09:57;;;;;;;21.58;12.30;;;10.30;99.90;;;;;;5037198;28;20072;-66
2023/10/26 01:12:24;;;;;;;17.25;12.00;;;10.30;99.90;;;;;;5011623;28;20582;-66
2023/10/26 01:14:49;;;;;;;21.95;12.48;;;10.30;99.90;;;;;;5014010;28;20053;-66
2023/10/26 01:17:15;;;;;;;18.10;11.63;;;10.20;99.90;;;;;;5028798;28;20045;-66
2023/10/26 01:19:43;;;;;;;25.30;12.40;;;10.20;99.90;;;;;;5012271;28;20034;-66
2023/10/26 01:22:10;;;;;;;20.92;13.07;;;10.30;99.90;;;;;;5033702;28;20118;-66
2023/10/26 01:24:36;;;;;;;21.83;14.32;;;10.30;99.90;;;;;;5031767;28;20085;-66
2023/10/26 01:27:03;;;;;;;20.52;12.43;;;10.30;99.90;;;;;;5028498;28;20640;-66
2023/10/26 01:29:28;;;;;;;17.98;12.90;;;10.30;99.90;;;;;;5029896;28;20084;-66
2023/10/26 01:31:54;;;;;;;20.77;13.18;;;10.30;99.90;;;;;;5028152;28;20080;-66
2023/10/26 01:34:20;;;;;;;20.92;14.55;;;10.30;99.90;;;;;;5011274;28;20060;-67
2023/10/26 01:36:46;;;;;;;20.63;14.52;;;10.20;99.90;;;;;;5012146;28;20056;-66
2023/10/26 01:39:16;;;;;;;17.30;13.30;;;10.30;99.90;;;;;;5028358;28;20053;-66
2023/10/26 01:41:43;;;;;;;18.20;13.20;;;10.30;99.90;;;;;;5029620;28;20064;-66
2023/10/26 01:44:08;;;;;;;16.40;11.70;;;10.30;99.90;;;;;;5018667;28;20080;-66
2023/10/26 01:46:34;;;;;;;21.60;12.80;;;10.10;99.90;;;;;;5001254;28;20053;-66
2023/10/26 01:49:01;;;;;;;20.40;12.50;;;10.20;99.90;;;;;;5048391;28;20098;-66
2023/10/26 01:51:27;;;;;;;22.15;12.90;;;10.30;99.90;;;;;;5048702;28;20099;-66
2023/10/26 01:53:52;;;;;;;20.20;12.55;;;10.20;99.90;;;;;;5055896;28;20073;-66
2023/10/26 01:56:18;;;;;;;21.05;13.88;;;10.20;99.90;;;;;;5030530;28;20112;-66
2023/10/26 01:58:45;;;;;;;20.35;13.50;;;10.20;99.90;;;;;;5050124;28;20052;-66
2023/10/26 02:01:11;;;;;;;16.80;12.65;;;10.20;99.90;;;;;;5046932;28;20186;-66
2023/10/26 02:03:37;;;;;;;18.58;12.77;;;10.20;99.90;;;;;;5032348;28;20056;-66
2023/10/26 02:06:03;;;;;;;19.33;11.88;;;10.20;99.90;;;;;;5047186;28;20036;-66
2023/10/26 02:08:29;;;;;;;19.75;13.18;;;10.10;99.90;;;;;;5048724;28;20045;-66
2023/10/26 02:10:55;;;;;;;16.52;11.90;;;10.20;99.90;;;;;;5048000;28;20681;-66
2023/10/26 02:13:20;;;;;;;19.98;13.77;;;10.20;99.90;;;;;;5014679;28;20045;-66
2023/10/26 02:15:46;;;;;;;19.45;13.02;;;10.10;99.90;;;;;;5048585;28;20045;-66
2023/10/26 02:18:12;;;;;;;21.35;12.38;;;10.20;99.90;;;;;;5047458;28;20085;-66
2023/10/26 02:20:38;;;;;;;19.92;12.43;;;10.20;99.90;;;;;;5049150;28;20114;-66
2023/10/26 02:23:04;;;;;;;24.15;12.48;;;10.20;99.90;;;;;;5047246;28;20061;-66
2023/10/26 02:25:31;;;;;;;18.77;12.20;;;10.20;99.90;;;;;;5049661;28;20049;-66
2023/10/26 02:27:57;;;;;;;17.13;12.82;;;10.20;99.90;;;;;;5047418;28;20418;-66
2023/10/26 02:30:23;;;;;;;17.85;12.93;;;10.20;99.90;;;;;;5029855;28;20414;-66
2023/10/26 02:32:49;;;;;;;16.70;12.20;;;10.20;99.90;;;;;;5013585;28;20056;-66
2023/10/26 02:35:15;;;;;;;13.77;11.57;;;10.20;99.90;;;;;;5048164;28;20051;-66
2023/10/26 02:37:41;;;;;;;23.52;12.98;;;10.30;99.90;;;;;;5030841;28;20087;-66
2023/10/26 02:40:08;;;;;;;23.13;12.32;;;10.20;99.90;;;;;;5046880;28;20384;-66
2023/10/26 02:42:35;;;;;;;20.83;13.02;;;10.20;99.90;;;;;;5063609;28;20106;-66
2023/10/26 02:45:03;;;;;;;19.63;12.30;;;10.30;99.90;;;;;;5046744;28;20037;-66
2023/10/26 02:47:29;;;;;;;20.73;12.27;;;10.30;99.90;;;;;;5033807;28;20063;-66
2023/10/26 02:49:55;;;;;;;22.27;13.82;;;10.30;99.90;;;;;;5044116;28;20483;-66
2023/10/26 02:52:20;;;;;;;17.70;12.48;;;10.30;99.90;;;;;;5047273;28;20055;-66
2023/10/26 02:54:46;;;;;;;16.77;11.45;;;10.30;99.90;;;;;;5013538;28;20128;-66
2023/10/26 02:57:14;;;;;;;22.55;12.95;;;10.30;99.90;;;;;;5030277;28;20048;-66
2023/10/26 02:59:40;;;;;;;17.63;12.02;;;10.20;99.90;;;;;;5023451;28;20490;-66
2023/10/26 03:02:07;;;;;;;19.50;12.95;;;10.30;99.90;;;;;;5047252;28;20091;-66
2023/10/26 03:04:37;;;;;;;19.77;10.75;;;10.20;99.90;;;;;;5029586;28;20041;-66
2023/10/26 03:07:03;;;;;;;24.52;11.98;;;10.30;99.90;;;;;;5048180;28;20577;-66
2023/10/26 03:09:29;;;;;;;13.85;11.35;;;10.30;99.90;;;;;;5012682;28;20131;-66
2023/10/26 03:11:55;;;;;;;18.98;12.13;;;10.30;99.90;;;;;;5047696;28;20603;-66
2023/10/26 03:14:21;;;;;;;22.02;12.10;;;10.20;99.90;;;;;;5047322;28;20049;-66
2023/10/26 03:16:47;;;;;;;17.75;12.45;;;10.20;99.90;;;;;;5057853;28;20049;-66
2023/10/26 03:19:13;;;;;;;23.33;12.77;;;10.20;99.90;;;;;;5028316;28;20605;-66
2023/10/26 03:21:39;;;;;;;26.02;13.63;;;10.20;99.90;;;;;;5047460;28;20048;-66
2023/10/26 03:24:05;;;;;;;20.00;12.38;;;10.30;99.90;;;;;;5028527;28;20053;-66
2023/10/26 03:26:31;;;;;;;20.45;13.18;;;10.20;99.90;;;;;;5057547;28;20068;-66
2023/10/26 03:28:57;;;;;;;21.58;11.93;;;10.30;99.90;;;;;;5047290;28;20079;-66
2023/10/26 03:31:22;;;;;;;18.02;12.50;;;10.20;99.90;;;;;;5045331;28;20040;-66
2023/10/26 03:33:49;;;;;;;20.08;12.82;;;10.30;99.90;;;;;;5029969;28;20048;-66
2023/10/26 03:36:19;;;;;;;19.05;13.25;;;10.20;99.90;;;;;;5055904;28;20059;-66
2023/10/26 03:38:46;;;;;;;21.60;12.98;;;10.20;99.90;;;;;;5047571;28;20049;-66
2023/10/26 03:41:13;;;;;;;17.67;12.43;;;10.30;99.90;;;;;;5046357;28;20467;-66
2023/10/26 03:43:39;;;;;;;21.30;13.40;;;10.20;99.90;;;;;;5029006;28;20491;-66
2023/10/26 03:46:05;;;;;;;21.33;13.40;;;10.20;99.90;;;;;;5045690;28;20087;-66
2023/10/26 03:48:35;;;;;;;17.80;13.02;;;10.20;99.90;;;;;;5026413;28;20099;-66
2023/10/26 03:51:01;;;;;;;;;;;10.20;99.90;;;;;;5027950;28;20128;-66
2023/10/26 03:53:28;;;;;;;19.80;12.40;;;10.20;99.90;;;;;;5007923;28;20003;-66
2023/10/26 03:55:54;;;;;;;22.85;12.95;;;10.10;99.90;;;;;;5027722;28;20045;-66
2023/10/26 03:58:20;;;;;;;28.38;13.75;;;10.10;99.90;;;;;;5029860;28;20515;-66
2023/10/26 04:00:47;;;;;;;18.30;12.50;;;10.20;99.90;;;;;;5028182;28;20102;-66
2023/10/26 04:03:13;;;;;;;23.13;13.70;;;10.20;99.90;;;;;;5021027;28;20041;-66
2023/10/26 04:05:39;;;;;;;20.48;14.15;;;10.20;99.90;;;;;;5026229;28;20495;-66
2023/10/26 04:08:06;;;;;;;21.27;13.93;;;10.20;99.90;;;;;;5009369;28;20077;-66
2023/10/26 04:10:32;;;;;;;21.83;13.77;;;10.20;99.90;;;;;;5007619;28;20041;-66
2023/10/26 04:12:58;;;;;;;19.08;13.52;;;10.20;99.90;;;;;;5028174;28;20509;-66
2023/10/26 04:15:23;;;;;;;24.55;15.05;;;10.20;99.90;;;;;;5025786;28;20129;-66
2023/10/26 04:17:50;;;;;;;23.65;14.73;;;10.30;99.90;;;;;;5026941;28;20041;-66
2023/10/26 04:20:16;;;;;;;28.83;15.35;;;10.20;99.90;;;;;;5026007;28;20499;-66
2023/10/26 04:22:41;;;;;;;23.80;14.90;;;10.20;99.90;;;;;;5033980;28;20087;-66
2023/10/26 04:25:08;;;;;;;22.95;14.88;;;10.30;99.90;;;;;;5027028;28;20045;-65
2023/10/26 04:27:35;;;;;;;23.65;15.63;;;10.20;99.90;;;;;;5025459;28;20447;-66
2023/10/26 04:30:01;;;;;;;21.63;13.75;;;10.20;99.90;;;;;;5044130;28;20049;-66
2023/10/26 04:32:26;;;;;;;24.88;14.85;;;10.20;99.90;;;;;;5033885;28;20339;-66
2023/10/26 04:34:53;;;;;;;22.17;15.20;;;10.20;99.90;;;;;;5031462;28;20069;-66
2023/10/26 04:37:19;;;;;;;20.75;13.43;;;10.20;99.90;;;;;;5008593;28;20060;-66
2023/10/26 04:39:45;;;;;;;23.58;14.95;;;10.20;99.90;;;;;;5009315;28;20049;-66
2023/10/26 04:42:12;;;;;;;21.60;13.90;;;10.20;99.90;;;;;;5012510;28;20046;-66
2023/10/26 04:44:41;;;;;;;21.00;14.43;;;10.30;99.90;;;;;;5012379;28;20089;-66
2023/10/26 04:47:06;;;;;;;18.50;13.95;;;10.20;99.90;;;;;;5030677;28;20100;-66
2023/10/26 04:49:35;;;;;;;25.23;13.73;;;10.10;99.90;;;;;;5011853;28;20089;-66
2023/10/26 04:52:01;;;;;;;21.17;12.80;;;10.20;99.90;;;;;;5030851;28;20037;-65
2023/10/26 04:54:30;;;;;;;22.15;13.27;;;10.20;99.90;;;;;;5029800;28;20479;-66
2023/10/26 04:56:55;;;;;;;18.52;12.32;;;10.10;99.90;;;;;;5029538;28;20498;-66
2023/10/26 04:59:21;;;;;;;20.80;13.55;;;10.20;99.90;;;;;;5029837;28;20053;-66
2023/10/26 05:01:47;;;;;;;23.63;13.45;;;10.20;99.90;;;;;;5034622;28;20136;-66
2023/10/26 05:04:13;;;;;;;23.52;12.30;;;10.10;99.90;;;;;;5016973;28;20056;-66
2023/10/26 05:06:38;;;;;;;19.38;12.70;;;10.10;99.90;;;;;;5045306;28;20103;-66
2023/10/26 05:09:05;;;;;;;20.58;13.20;;;10.10;99.90;;;;;;5030337;28;20048;-66
2023/10/26 05:11:31;;;;;;;24.52;13.43;;;10.10;99.90;;;;;;5033810;28;20041;-66
2023/10/26 05:13:57;;;;;;;25.20;13.80;;;10.00;99.90;;;;;;5012640;28;20053;-66
2023/10/26 05:16:23;;;;;;;28.05;14.07;;;10.00;99.90;;;;;;5029279;28;20041;-66
2023/10/26 05:18:48;;;;;;;22.63;13.07;;;10.10;99.90;;;;;;5029758;28;20483;-66
2023/10/26 05:21:14;;;;;;;24.85;13.15;;;10.10;99.90;;;;;;5030207;28;20046;-66
2023/10/26 05:23:47;;;;;;;18.85;12.68;;;9.90;99.90;;;;;;5011261;28;20045;-66
2023/10/26 05:26:13;;;;;;;22.17;12.73;;;10.00;99.90;;;;;;5029938;28;20045;-66
2023/10/26 05:28:38;;;;;;;18.95;13.40;;;10.00;99.90;;;;;;5010385;28;20369;-65
2023/10/26 05:31:04;;;;;;;17.67;12.25;;;9.90;99.90;;;;;;5011897;28;20049;-66
2023/10/26 05:33:30;;;;;;;22.13;12.43;;;9.90;99.90;;;;;;5011460;28;20388;-66
2023/10/26 05:35:55;;;;;;;16.50;11.85;;;9.80;99.90;;;;;;5011077;28;20069;-66
2023/10/26 05:38:21;;;;;;;15.45;11.70;;;9.80;99.90;;;;;;5028319;28;20042;-66
2023/10/26 05:40:53;;;;;;;21.70;12.40;;;9.80;99.90;;;;;;5000815;28;20045;-66
2023/10/26 05:43:19;;;;;;;26.73;11.60;;;9.80;99.90;;;;;;5021597;28;20406;-66
2023/10/26 05:45:45;;;;;;;19.85;12.25;;;9.80;99.90;;;;;;5028072;28;20133;-66
2023/10/26 05:48:11;;;;;;;24.17;12.32;;;9.90;99.90;;;;;;5029237;28;20060;-66
2023/10/26 05:50:43;;;;;;;19.75;12.02;;;9.80;99.90;;;;;;5029775;28;20057;-66
2023/10/26 05:53:10;;;;;;;17.95;12.15;;;9.70;99.90;;;;;;5028915;28;20080;-66
2023/10/26 05:55:36;;;;;;;21.08;11.75;;;9.80;99.90;;;;;;5028632;28;20132;-66
2023/10/26 05:58:03;;;;;;;26.58;12.80;;;9.90;99.90;;;;;;5007259;28;20504;-66
2023/10/26 06:00:29;;;;;;;18.98;13.05;;;9.90;99.90;;;;;;5008783;28;20046;-66
2023/10/26 06:02:55;;;;;;;21.35;12.98;;;9.80;99.90;;;;;;5024021;28;20430;-66
2023/10/26 06:05:20;;;;;;;22.83;13.23;;;9.90;99.90;;;;;;5011620;28;20049;-66
2023/10/26 06:07:46;;;;;;;21.17;12.20;;;9.80;99.90;;;;;;5027597;28;20049;-66
2023/10/26 06:10:12;;;;;;;22.25;11.88;;;9.70;99.90;;;;;;5032726;28;20057;-66
2023/10/26 06:12:38;;;;;;;26.80;12.95;;;9.80;99.90;;;;;;5010909;28;20069;-66
2023/10/26 06:15:04;;;;;;;21.95;12.40;;;9.70;99.90;;;;;;5011406;28;20048;-66
2023/10/26 06:17:30;;;;;;;16.75;11.88;;;9.80;99.90;;;;;;5009948;28;20499;-66
2023/10/26 06:19:56;;;;;;;17.55;12.57;;;9.80;99.90;;;;;;5027377;28;20057;-66
2023/10/26 06:22:22;;;;;;;20.40;13.13;;;9.70;99.90;;;;;;5029140;28;20037;-65
2023/10/26 06:24:47;;;;;;;18.70;11.45;;;9.80;99.90;;;;;;5041116;28;20506;-66
2023/10/26 06:27:13;;;;;;;22.80;11.40;;;9.70;99.90;;;;;;5007709;28;20072;-66
2023/10/26 06:29:40;;;;;;;23.15;13.43;;;9.70;99.90;;;;;;4991652;28;20506;-66
2023/10/26 06:32:06;;;;;;;21.80;12.38;;;9.70;99.90;;;;;;5031077;28;20103;-66
2023/10/26 06:34:32;;;;;;;18.73;11.32;;;9.70;99.90;;;;;;5023145;28;20447;-65
2023/10/26 06:36:57;;;;;;;19.73;12.27;;;9.70;99.90;;;;;;5031338;28;20071;-65
2023/10/26 06:39:23;;;;;;;20.80;11.10;;;9.70;99.90;;;;;;5027801;28;20503;-66
2023/10/26 06:41:49;;;;;;;19.05;12.90;;;9.50;99.90;;;;;;5006670;28;20495;-66
2023/10/26 06:44:14;;;;;;;18.25;11.27;;;9.60;99.90;;;;;;5027377;28;20045;-66
2023/10/26 06:46:40;;;;;;;22.40;13.02;;;9.50;99.90;;;;;;5027233;28;20487;-66
2023/10/26 06:49:06;;;;;;;17.50;11.77;;;9.60;99.90;;;;;;5027707;28;20492;-65
2023/10/26 06:51:31;;;;;;;20.35;12.00;;;9.60;99.90;;;;;;5027002;28;20046;-65
2023/10/26 06:53:57;;;;;;;15.45;11.00;;;9.50;99.90;;;;;;5009199;28;20048;-66
2023/10/26 06:56:23;;;;;;;19.75;12.18;;;9.50;99.90;;;;;;5036718;28;20077;-65
2023/10/26 06:58:50;;;;;;;18.95;11.70;;;9.60;99.90;;;;;;5007721;28;20392;-66
2023/10/26 07:01:15;;;;;;;20.30;12.13;;;9.50;99.90;;;;;;5009397;28;20049;-66
2023/10/26 07:03:41;;;;;;;18.65;12.30;;;9.40;99.90;;;;;;5024052;28;20052;-66
2023/10/26 07:06:07;;;;;;;20.42;12.60;;;9.40;99.90;;;;;;5026732;28;20057;-66
2023/10/26 07:08:33;;;;;;;18.05;12.57;;;9.40;99.90;;;;;;5026715;28;20045;-66
2023/10/26 07:11:04;;;;;;;23.25;15.55;;;9.40;99.90;;;;;;5027750;28;20396;-66
2023/10/26 07:13:30;;;;;;;19.85;13.68;;;9.40;99.90;;;;;;5010112;28;20120;-65
2023/10/26 07:15:59;;;;;;;27.83;17.48;;;9.30;99.90;;;;;;5027490;28;20041;-66
2023/10/26 07:18:26;;;;;;;32.47;19.33;;;9.40;99.90;;;;;;5047797;28;20514;-66
2023/10/26 07:20:54;;;;;;;35.22;20.05;;;9.40;99.90;;;;;;5033130;28;20060;-66
2023/10/26 07:23:19;;;;;;;36.53;20.65;;;9.40;99.90;;;;;;5015065;28;20089;-66
2023/10/26 07:25:46;;;;;;;27.20;18.52;;;9.40;99.90;;;;;;5026969;28;20133;-66
2023/10/26 07:28:12;;;;;;;21.58;16.90;;;9.40;99.90;;;;;;5023432;28;20418;-65
2023/10/26 07:30:42;;;;;;;22.42;15.88;;;9.40;99.90;;;;;;5037597;28;20041;-65
2023/10/26 07:33:08;;;;;;;;;;;9.30;99.90;;;;;;5033854;28;20674;-65
2023/10/26 07:35:42;;;;;;;21.88;13.18;;;9.30;99.90;;;;;;5005760;28;19966;-66
2023/10/26 07:38:09;;;;;;;23.02;12.02;;;9.40;99.90;;;;;;5008236;28;20146;-66
2023/10/26 07:40:37;;;;;;;20.85;12.35;;;9.40;99.90;;;;;;5028066;28;20487;-65
2023/10/26 07:43:03;;;;;;;19.55;12.45;;;9.50;99.90;;;;;;5027476;28;20061;-66
2023/10/26 07:45:28;;;;;;;18.70;12.50;;;9.50;99.90;;;;;;5025158;28;20045;-66
2023/10/26 07:47:56;;;;;;;22.13;11.88;;;9.60;99.90;;;;;;5007013;28;20049;-66
2023/10/26 07:50:22;;;;;;;16.27;11.93;;;9.80;99.90;;;;;;5023724;28;20485;-66
2023/10/26 07:52:48;;;;;;;18.67;12.15;;;9.90;99.90;;;;;;5013986;28;20504;-66
2023/10/26 07:55:14;;;;;;;16.42;11.35;;;9.90;99.90;;;;;;5004298;28;20560;-65
2023/10/26 07:57:43;;;;;;;16.13;10.98;;;10.00;99.90;;;;;;5008513;28;20034;-65
2023/10/26 08:00:11;;;;;;;17.45;11.88;;;10.10;99.90;;;;;;5034261;28;20053;-65
2023/10/26 08:02:37;;;;;;;20.33;12.45;;;10.20;99.90;;;;;;5003930;28;20054;-66
2023/10/26 08:05:03;;;;;;;19.23;13.25;;;10.30;99.90;;;;;;5023931;28;20041;-66
2023/10/26 08:07:29;;;;;;;22.52;13.80;;;10.30;99.90;;;;;;5030695;28;20049;-65
2023/10/26 08:09:56;;;;;;;23.05;12.98;;;10.30;99.90;;;;;;5031033;28;20030;-65
2023/10/26 08:12:25;;;;;;;23.80;13.45;;;10.40;99.90;;;;;;5030596;28;20526;-65
2023/10/26 08:14:52;;;;;;;28.55;13.25;;;10.30;99.90;;;;;;5031649;28;20068;-65
2023/10/26 08:17:18;;;;;;;26.67;13.85;;;10.30;99.90;;;;;;4995629;28;20402;-65
2023/10/26 08:19:44;;;;;;;25.20;13.88;;;10.40;99.90;;;;;;5016117;28;20048;-65
2023/10/26 08:22:10;;;;;;;21.65;12.77;;;10.30;99.90;;;;;;5029951;28;20045;-65
2023/10/26 08:24:36;;;;;;;22.45;13.80;;;10.20;99.90;;;;;;4997375;28;20053;-66
2023/10/26 08:27:03;;;;;;;26.17;14.50;;;10.20;99.90;;;;;;5031210;28;20091;-65
2023/10/26 08:29:29;;;;;;;27.52;15.60;;;10.30;99.90;;;;;;5012092;28;20059;-65
2023/10/26 08:31:56;;;;;;;31.67;16.65;;;10.20;99.90;;;;;;5030687;28;20041;-65
2023/10/26 08:34:21;;;;;;;24.73;14.48;;;10.20;99.90;;;;;;5041295;28;20399;-65
2023/10/26 08:36:47;;;;;;;32.53;16.38;;;10.20;99.90;;;;;;5012971;28;20044;-65
2023/10/26 08:39:13;;;;;;;27.95;16.25;;;10.10;99.90;;;;;;5011225;28;20041;-65
2023/10/26 08:41:42;;;;;;;32.33;18.02;;;10.10;99.90;;;;;;5030568;28;20037;-65
2023/10/26 08:44:08;;;;;;;31.07;18.00;;;10.10;99.90;;;;;;5037508;28;20048;-65
2023/10/26 08:46:34;;;;;;;26.83;15.38;;;10.00;99.90;;;;;;5032447;28;20144;-65
2023/10/26 08:49:02;;;;;;;27.50;15.80;;;10.00;99.90;;;;;;5030755;28;20053;-65
2023/10/26 08:51:28;;;;;;;28.15;16.52;;;10.10;99.90;;;;;;5029045;28;20406;-65
2023/10/26 08:53:56;;;;;;;32.85;17.75;;;10.10;99.90;;;;;;5032157;28;20033;-65
2023/10/26 08:56:23;;;;;;;28.15;15.25;;;10.10;99.90;;;;;;5035368;28;20457;-65
2023/10/26 08:58:54;;;;;;;28.60;16.58;;;10.20;99.90;;;;;;5030138;28;20132;-65
2023/10/26 09:01:19;;;;;;;30.02;15.85;;;10.20;99.90;;;;;;5029426;28;20096;-65
2023/10/26 09:03:45;;;;;;;30.95;15.90;;;10.30;99.90;;;;;;5011858;28;20069;-65
2023/10/26 09:06:11;;;;;;;30.70;16.98;;;10.20;99.90;;;;;;5030893;28;20477;-65
2023/10/26 09:08:36;;;;;;;32.78;16.95;;;10.20;99.90;;;;;;5029213;28;20045;-65
2023/10/26 09:11:25;;;;;;;24.40;16.40;;;10.30;99.90;;;;;;5030492;28;20507;-65
2023/10/26 09:13:52;;;;;;;28.45;15.88;;;10.20;99.90;;;;;;5024126;28;20050;-65
2023/10/26 09:16:33;;;;;;;30.05;16.42;;;10.30;99.90;;;;;;5035823;28;20073;-65
2023/10/26 09:18:59;;;;;;;28.95;16.73;;;10.20;99.90;;;;;;5035076;28;20049;-65
2023/10/26 09:21:25;;;;;;;29.60;16.63;;;10.40;99.90;;;;;;5030114;28;20041;-65
2023/10/26 09:23:50;;;;;;;31.95;16.98;;;10.40;99.90;;;;;;5031891;28;20056;-65
2023/10/26 09:26:16;;;;;;;27.10;16.85;;;10.40;99.90;;;;;;5028152;28;20045;-65
2023/10/26 09:28:55;;;;;;;35.05;18.85;;;10.50;99.90;;;;;;5029296;28;20052;-65
2023/10/26 09:31:24;;;;;;;26.27;17.47;;;10.50;99.90;;;;;;5033944;28;20049;-65
2023/10/26 09:33:50;;;;;;;36.20;18.08;;;10.50;99.90;;;;;;5040716;28;20116;-65
2023/10/26 09:36:17;;;;;;;31.75;17.92;;;10.50;99.90;;;;;;5041814;28;20068;-65
2023/10/26 09:38:44;;;;;;;33.92;18.38;;;10.60;99.90;;;;;;5035409;28;20112;-65
2023/10/26 09:41:12;;;;;;;32.40;18.45;;;10.60;99.90;;;;;;5046283;28;20044;-65
2023/10/26 09:43:40;;;;;;;39.38;17.90;;;10.70;99.90;;;;;;5014227;28;20037;-65
2023/10/26 09:46:07;;;;;;;32.33;18.90;;;10.80;99.90;;;;;;5032653;28;20052;-65
2023/10/26 09:48:33;;;;;;;32.63;19.33;;;10.90;99.90;;;;;;5027764;28;20076;-65
2023/10/26 09:51:01;;;;;;;34.90;18.75;;;10.80;99.90;;;;;;5028663;28;20049;-65
2023/10/26 09:53:47;;;;;;;28.00;17.75;;;10.90;99.90;;;;;;5032160;28;20041;-65
2023/10/26 09:56:23;;;;;;;33.65;18.50;;;11.00;99.90;;;;;;5033221;28;20368;-65
2023/10/26 09:58:51;;;;;;;27.40;17.40;;;11.00;99.90;;;;;;5006085;28;20100;-65
2023/10/26 10:01:37;;;;;;;32.17;18.35;;;11.20;99.90;;;;;;5027202;28;20052;-65
2023/10/26 10:04:08;;;;;;;31.88;18.15;;;11.20;99.90;;;;;;5028180;28;20037;-65
2023/10/26 10:06:51;;;;;;;35.10;19.70;;;11.20;99.90;;;;;;5028561;28;20038;-65
2023/10/26 10:09:27;;;;;;;34.22;19.95;;;11.30;99.90;;;;;;5020728;28;20111;-65
2023/10/26 10:12:08;;;;;;;30.15;19.25;;;11.20;99.90;;;;;;5011858;28;20103;-65
2023/10/26 10:14:51;;;;;;;30.75;18.13;;;11.10;99.90;;;;;;5028802;28;20089;-65
2023/10/26 10:17:19;;;;;;;34.90;17.08;;;11.10;99.90;;;;;;5010010;28;20064;-65
2023/10/26 10:19:46;;;;;;;34.13;17.73;;;11.10;99.90;;;;;;4991391;28;20484;-64
2023/10/26 10:22:34;;;;;;;26.55;16.80;;;11.10;99.90;;;;;;5020861;28;20045;-65
2023/10/26 10:25:00;;;;;;;27.55;16.77;;;11.20;99.90;;;;;;5025133;28;20037;-64
2023/10/26 10:27:27;;;;;;;31.15;17.27;;;11.30;99.90;;;;;;5033147;28;20049;-64
2023/10/26 10:30:07;;;;;;;28.23;17.42;;;11.40;99.90;;;;;;5010180;28;20413;-64
2023/10/26 10:32:47;;;;;;;;;;;11.50;99.90;;;;;;5009254;28;20061;-65
2023/10/26 10:35:31;;;;;;;32.30;18.23;;;11.50;99.90;;;;;;5023731;28;20403;-65
2023/10/26 10:38:21;;;;;;;27.50;16.92;;;11.50;99.90;;;;;;5026557;28;20116;-65
2023/10/26 10:40:55;;;;;;;31.77;16.75;;;11.50;99.90;;;;;;5027985;28;20415;-64
2023/10/26 10:43:31;;;;;;;27.77;16.88;;;11.50;99.90;;;;;;5008674;28;20054;-65
2023/10/26 10:46:08;;;;;;;30.90;16.30;;;11.60;99.90;;;;;;5028082;28;20418;-65
2023/10/26 10:48:34;;;;;;;23.40;16.33;;;11.60;99.90;;;;;;5026359;28;20041;-65
2023/10/26 10:51:00;;;;;;;30.52;17.48;;;11.60;99.90;;;;;;5009879;28;20120;-64
2023/10/26 10:53:27;;;;;;;26.55;17.15;;;11.60;99.90;;;;;;5026981;28;20045;-64
2023/10/26 10:55:53;;;;;;;29.40;16.65;;;11.60;99.90;;;;;;5029478;28;20234;-64
2023/10/26 10:58:35;;;;;;;27.73;17.05;;;11.70;99.90;;;;;;5026705;28;20053;-64
2023/10/26 11:01:01;;;;;;;29.73;16.40;;;11.90;99.90;;;;;;5004662;28;20101;-65
2023/10/26 11:03:27;;;;;;;25.30;16.42;;;12.00;99.90;;;;;;5030661;28;20487;-65
2023/10/26 11:05:52;;;;;;;23.65;16.15;;;11.90;99.90;;;;;;5024519;28;20041;-64
2023/10/26 11:08:19;;;;;;;22.17;15.20;;;11.90;99.90;;;;;;5034831;28;20475;-64
2023/10/26 11:10:49;;;;;;;26.00;15.38;;;11.90;99.90;;;;;;5004717;28;20053;-64
2023/10/26 11:13:22;;;;;;;22.17;15.30;;;11.80;99.90;;;;;;5011626;28;20459;-65
2023/10/26 11:15:48;;;;;;;26.13;16.42;;;11.80;99.90;;;;;;5031648;28;20099;-64
2023/10/26 11:18:14;;;;;;;23.05;14.93;;;11.70;99.90;;;;;;5010120;28;20053;-65
2023/10/26 11:20:42;;;;;;;23.92;15.63;;;11.70;99.90;;;;;;5027084;28;20044;-64
2023/10/26 11:23:10;;;;;;;20.70;14.70;;;11.60;99.90;;;;;;5026466;28;20045;-65
2023/10/26 11:25:36;;;;;;;21.92;15.52;;;11.60;99.90;;;;;;5026784;28;20139;-64
2023/10/26 11:28:02;;;;;;;22.90;15.75;;;11.60;99.90;;;;;;5012982;28;20077;-64
2023/10/26 11:30:29;;;;;;;22.58;15.40;;;11.50;99.90;;;;;;5012603;28;20491;-64
2023/10/26 11:32:56;;;;;;;25.42;16.23;;;11.60;99.90;;;;;;5014106;28;20072;-64
2023/10/26 11:35:23;;;;;;;24.60;15.82;;;11.60;99.90;;;;;;5035423;28;20068;-64
2023/10/26 11:37:54;;;;;;;23.35;14.73;;;11.60;99.90;;;;;;5037727;28;20083;-65
2023/10/26 11:40:29;;;;;;;24.30;15.32;;;11.60;99.90;;;;;;5020564;28;20132;-64
2023/10/26 11:43:02;;;;;;;24.55;15.90;;;11.60;99.90;;;;;;5039261;28;20103;-64
2023/10/26 11:45:29;;;;;;;23.02;15.30;;;11.60;99.90;;;;;;5026687;28;20033;-64
2023/10/26 11:47:54;;;;;;;22.08;15.07;;;11.60;99.90;;;;;;5007597;28;20141;-64
2023/10/26 11:50:28;;;;;;;19.80;14.40;;;11.50;99.90;;;;;;5023304;28;20092;-64
2023/10/26 11:53:01;;;;;;;25.45;14.35;;;11.50;99.90;;;;;;5023098;28;20056;-64
2023/10/26 11:55:28;;;;;;;20.52;15.25;;;11.50;99.90;;;;;;5023327;28;20053;-64
2023/10/26 11:57:57;;;;;;;22.02;15.18;;;11.50;99.90;;;;;;5025880;28;20048;-64
2023/10/26 12:00:23;;;;;;;21.42;14.95;;;11.50;99.90;;;;;;4996458;28;20053;-64
2023/10/26 12:02:49;;;;;;;23.40;15.77;;;11.60;99.90;;;;;;5028379;28;20045;-64
2023/10/26 12:05:19;;;;;;;21.65;14.57;;;11.70;99.90;;;;;;5025503;28;20053;-64
2023/10/26 12:07:46;;;;;;;22.13;15.18;;;11.70;99.90;;;;;;4992520;28;20041;-65
2023/10/26 12:10:13;;;;;;;21.05;15.27;;;11.80;99.90;;;;;;5025380;28;20504;-64
2023/10/26 12:12:38;;;;;;;25.75;15.55;;;11.90;99.90;;;;;;5027283;28;20052;-64
2023/10/26 12:15:05;;;;;;;21.58;14.60;;;11.90;99.90;;;;;;5025667;28;20033;-64
2023/10/26 12:17:31;;;;;;;20.58;15.13;;;12.10;99.90;;;;;;5008989;28;20487;-64
2023/10/26 12:19:57;;;;;;;20.50;14.80;;;12.20;99.90;;;;;;5026159;28;20046;-64
2023/10/26 12:22:23;;;;;;;22.98;15.25;;;12.40;99.90;;;;;;5028665;28;20044;-64
2023/10/26 12:24:48;;;;;;;19.13;14.32;;;12.40;99.90;;;;;;5025719;28;20400;-64
2023/10/26 12:27:16;;;;;;;23.15;13.45;;;12.60;99.90;;;;;;5004310;28;20488;-64
2023/10/26 12:29:46;;;;;;;20.40;13.55;;;12.60;99.90;;;;;;5016113;28;20057;-64
2023/10/26 12:32:12;;;;;;;19.55;13.25;;;12.70;99.90;;;;;;4991195;28;20051;-64